Hovedside
METAR-TAF:

METAR-TAF

Lufthavner :

Ushuaia, Argentina

breddegrad: 54-48S, lengdegrad: 068-19W, høyde over havet: 16 m

Gjeldene værobservasjon

Denne rapporten ble laget for 39 minutter siden, klokken 14:00 UTC
Vind 16 kt fra Sørvest
Temperatur 10°C
Luftfuktighet 66%
Trykk 993 hPa
Sikt 10 km eller mer

METAR: SAWH 211400Z 23016KT 9999 SCTSCT100 10/04 Q0993

Tid: 11:39 (14:39 UTC)

Varsel

Denne rapporten ble laget for 3 timer og 39 minutter siden, klokken 11:00 UTC
Varsel gyldig fra 21. klokken 12 UTC til 22. klokken 12 UTC
Vind 18 kt fra Sørvest
Sikt 10 km eller mer
Spredte skyer i en høyde av 4000 ft
Blir
fra 21. klokken 18 UTC til 21. klokken 20 UTC
Sikt: 8000 m
Brutte skyer i en høyde av 3000 ft
Spredte skyer i en høyde av 3500 ft, Tårnskyer (cumulus).
Overskyet i en høyde av 4500 ft
regnbyger

TAF: SAWH 211100Z 2112/2212 23018KT 9999 SCT040 TX15/2119Z TN05/2212Z BECMG 2118/2120 8000 SHRA BKN030 SCT035TCU OVC045

Værobservasjoner og værvarsel for over 4000 flyplasser (METAR- og TAF-rapporter).

Tilgjengelige stasjoner er representert av de røde og gule prikkene på kartet.

Hold musepekeren over prikken for å se navnet på stasjonen.

Klikk så for å se værobservasjoner og -varsler.

For å forandre kartet kan du klikke på den grønne knappen med svart kryss for å zoome inn, på den grønne knappen med strek for å zoome ut, eller på de grønne pilene for å se tilstøtende kart.


METAR-TAF: